createdAt,value
2017-09-30T00:00:29.035Z,7.40
2017-09-30T00:02:56.613Z,7.53
2017-09-30T00:05:24.088Z,7.37
2017-09-30T00:07:52.354Z,6.70
2017-09-30T00:10:20.584Z,7.90
2017-09-30T00:12:48.067Z,7.00
2017-09-30T00:15:15.540Z,6.90
2017-09-30T00:17:43.011Z,7.10
2017-09-30T00:20:11.316Z,7.63
2017-09-30T00:22:38.787Z,7.47
2017-09-30T00:25:06.276Z,7.30
2017-09-30T00:27:33.752Z,9.00
2017-09-30T00:30:01.244Z,6.43
2017-09-30T00:32:28.720Z,7.20
2017-09-30T00:34:56.267Z,7.90
2017-09-30T00:37:23.783Z,7.53
2017-09-30T00:39:51.264Z,7.47
2017-09-30T00:42:19.520Z,7.90
2017-09-30T00:44:47.001Z,6.67
2017-09-30T00:47:15.276Z,7.03
2017-09-30T00:49:43.535Z,6.90
2017-09-30T00:52:11.784Z,7.43
2017-09-30T00:54:39.276Z,7.10
2017-09-30T00:57:07.508Z,6.43
2017-09-30T00:59:34.997Z,6.33
2017-09-30T01:02:02.472Z,6.80
2017-09-30T01:04:30.740Z,8.13
2017-09-30T01:06:58.984Z,7.77
2017-09-30T01:09:26.476Z,7.37
2017-09-30T01:11:54.736Z,6.90
2017-09-30T01:14:22.219Z,7.50
2017-09-30T01:16:50.481Z,6.33
2017-09-30T01:19:18.728Z,7.33
2017-09-30T01:21:46.229Z,6.93
2017-09-30T01:24:14.472Z,7.60
2017-09-30T01:26:41.957Z,7.17
2017-09-30T01:29:10.220Z,6.80
2017-09-30T01:31:37.695Z,6.60
2017-09-30T01:34:05.960Z,6.83
2017-09-30T01:36:34.955Z,7.20
2017-09-30T01:39:02.456Z,6.80
2017-09-30T01:41:29.936Z,6.70
2017-09-30T01:43:57.415Z,6.93
2017-09-30T01:46:24.940Z,7.43
2017-09-30T01:48:52.440Z,8.10
2017-09-30T01:51:19.956Z,9.03
2017-09-30T01:53:47.452Z,8.20
2017-09-30T01:56:14.970Z,7.00
2017-09-30T01:58:42.491Z,7.20
2017-09-30T02:01:14.742Z,7.20
2017-09-30T02:03:42.231Z,6.87
2017-09-30T02:06:10.488Z,6.93
2017-09-30T02:08:37.985Z,9.60
2017-09-30T02:11:05.527Z,10.23
2017-09-30T02:13:33.784Z,11.47
2017-09-30T02:16:01.272Z,9.93
2017-09-30T02:18:28.784Z,10.40
2017-09-30T02:20:56.292Z,10.30
2017-09-30T02:23:23.772Z,10.13
2017-09-30T02:25:51.270Z,11.50
2017-09-30T02:28:18.764Z,12.07
2017-09-30T02:30:46.261Z,13.77
2017-09-30T02:33:13.752Z,13.60
2017-09-30T02:35:42.027Z,11.40
2017-09-30T02:38:09.509Z,11.77
2017-09-30T02:40:37.751Z,9.57
2017-09-30T02:43:05.247Z,8.80
2017-09-30T02:45:32.728Z,7.93
2017-09-30T02:48:00.212Z,7.67
2017-09-30T02:50:27.693Z,7.33
2017-09-30T02:52:55.224Z,9.30
2017-09-30T02:55:22.720Z,9.27
2017-09-30T02:57:50.968Z,8.50
2017-09-30T03:00:18.464Z,8.30
2017-09-30T03:02:46.704Z,7.23
2017-09-30T03:05:14.231Z,7.03
2017-09-30T03:07:41.716Z,7.30
2017-09-30T03:10:09.245Z,6.57
2017-09-30T03:12:36.728Z,5.40
2017-09-30T03:15:04.258Z,5.70
2017-09-30T03:17:31.756Z,5.40
2017-09-30T03:19:59.244Z,5.00
2017-09-30T03:22:27.512Z,5.53
2017-09-30T03:24:54.992Z,5.30
2017-09-30T03:27:23.263Z,5.10
2017-09-30T03:29:51.512Z,5.03
2017-09-30T03:32:18.988Z,4.80
2017-09-30T03:34:47.243Z,5.10
2017-09-30T03:37:14.716Z,4.90
2017-09-30T03:39:42.204Z,5.30
2017-09-30T03:42:09.685Z,5.40
2017-09-30T03:44:37.188Z,5.00
2017-09-30T03:47:04.672Z,5.30
2017-09-30T03:49:32.152Z,4.80
2017-09-30T03:51:59.641Z,3.97
2017-09-30T03:54:27.117Z,4.57
2017-09-30T03:56:54.608Z,4.73
2017-09-30T03:59:22.077Z,4.60
2017-09-30T04:01:49.594Z,5.10
2017-09-30T04:04:17.852Z,5.80
2017-09-30T04:06:45.332Z,6.97
2017-09-30T04:09:12.815Z,7.00
2017-09-30T04:11:41.056Z,5.60
2017-09-30T04:14:08.547Z,6.00
2017-09-30T04:16:36.788Z,5.67
2017-09-30T04:19:04.294Z,5.80
2017-09-30T04:21:31.776Z,6.07
2017-09-30T04:23:59.265Z,5.90
2017-09-30T04:26:26.764Z,5.93
2017-09-30T04:28:54.243Z,6.90
2017-09-30T04:31:21.744Z,6.10
2017-09-30T04:33:49.235Z,7.60
2017-09-30T04:36:17.478Z,7.37
2017-09-30T04:38:46.499Z,7.10
2017-09-30T04:41:14.760Z,7.03
2017-09-30T04:43:42.252Z,7.50
2017-09-30T04:46:09.736Z,7.27
2017-09-30T04:48:37.211Z,7.87
2017-09-30T04:51:04.704Z,8.30
2017-09-30T04:53:32.948Z,8.97
2017-09-30T04:56:00.444Z,8.10
2017-09-30T04:58:28.690Z,8.40
2017-09-30T05:00:56.940Z,8.17
2017-09-30T05:03:24.428Z,8.80
2017-09-30T05:05:51.912Z,8.30
2017-09-30T05:08:20.172Z,8.47
2017-09-30T05:10:47.681Z,8.70
2017-09-30T05:13:15.992Z,8.47
2017-09-30T05:15:43.478Z,8.90
2017-09-30T05:18:11.714Z,7.60
2017-09-30T05:20:39.212Z,11.60
2017-09-30T05:23:07.479Z,8.47
2017-09-30T05:25:34.968Z,8.93
2017-09-30T05:28:02.456Z,7.67
2017-09-30T05:30:29.932Z,8.13
2017-09-30T05:32:57.418Z,8.30
2017-09-30T05:35:25.663Z,8.10
2017-09-30T05:37:53.155Z,9.10
2017-09-30T05:40:21.390Z,7.53
2017-09-30T05:42:48.863Z,7.57
2017-09-30T05:45:16.352Z,6.27
2017-09-30T05:47:44.591Z,7.10
2017-09-30T05:50:12.099Z,6.90
2017-09-30T05:52:39.569Z,6.53
2017-09-30T05:55:07.041Z,7.00
2017-09-30T05:57:34.526Z,6.77
2017-09-30T06:00:01.991Z,6.70
2017-09-30T06:02:29.484Z,5.70
2017-09-30T06:04:57.715Z,6.60
2017-09-30T06:07:25.208Z,6.37
2017-09-30T06:09:53.439Z,6.40
2017-09-30T06:12:20.911Z,7.00
2017-09-30T06:14:48.408Z,6.80
2017-09-30T06:17:16.639Z,6.90
2017-09-30T06:19:44.127Z,7.40
2017-09-30T06:22:11.595Z,8.60
2017-09-30T06:24:39.861Z,8.20
2017-09-30T06:27:08.126Z,8.60
2017-09-30T06:29:35.607Z,10.57
2017-09-30T06:32:03.869Z,10.23
2017-09-30T06:34:31.339Z,9.90
2017-09-30T06:36:59.608Z,11.10
2017-09-30T06:39:27.083Z,10.03
2017-09-30T06:41:55.329Z,10.33
2017-09-30T06:44:24.328Z,11.53
2017-09-30T06:46:53.322Z,11.73
2017-09-30T06:49:20.829Z,11.70
2017-09-30T06:51:48.306Z,12.43
2017-09-30T06:54:15.824Z,13.10
2017-09-30T06:56:44.080Z,12.90
2017-09-30T06:59:11.556Z,14.67
2017-09-30T07:01:39.827Z,14.60
2017-09-30T07:04:08.067Z,14.00
2017-09-30T07:06:35.548Z,14.80
2017-09-30T07:09:03.044Z,14.80
2017-09-30T07:11:30.537Z,13.90
2017-09-30T07:13:58.036Z,14.60
2017-09-30T07:16:26.284Z,14.77
2017-09-30T07:18:53.763Z,15.47
2017-09-30T07:21:22.019Z,14.30
2017-09-30T07:23:49.503Z,14.93
2017-09-30T07:26:17.761Z,13.73
2017-09-30T07:28:45.252Z,15.10
2017-09-30T07:31:13.496Z,13.67
2017-09-30T07:33:40.984Z,12.20
2017-09-30T07:36:09.238Z,13.73
2017-09-30T07:38:36.740Z,13.50
2017-09-30T07:41:04.223Z,12.33
2017-09-30T07:43:31.704Z,12.40
2017-09-30T07:45:59.971Z,11.43
2017-09-30T07:48:27.446Z,12.10
2017-09-30T07:50:55.011Z,11.90
2017-09-30T07:53:23.263Z,10.37
2017-09-30T07:55:50.742Z,10.73
2017-09-30T07:58:19.020Z,10.70
2017-09-30T08:00:46.492Z,11.83
2017-09-30T08:03:14.756Z,9.50
2017-09-30T08:05:42.227Z,9.67
2017-09-30T08:08:10.471Z,11.10
2017-09-30T08:10:37.976Z,10.53
2017-09-30T08:13:05.459Z,10.73
2017-09-30T08:15:32.952Z,10.20
2017-09-30T08:18:00.420Z,9.13
2017-09-30T08:20:27.918Z,10.23
2017-09-30T09:56:36.149Z,7.30
2017-09-30T09:59:04.404Z,4.07
2017-09-30T10:01:31.984Z,2.93
2017-09-30T10:04:00.232Z,3.57
2017-09-30T10:06:27.723Z,3.57
2017-09-30T10:08:55.987Z,3.63
2017-09-30T10:11:24.235Z,3.10
2017-09-30T10:13:51.703Z,4.57
2017-09-30T10:16:19.183Z,3.77
2017-09-30T10:18:47.424Z,3.93
2017-09-30T10:21:14.930Z,4.90
2017-09-30T10:23:43.182Z,4.63
2017-09-30T10:26:11.433Z,4.60
2017-09-30T10:28:38.919Z,3.57
2017-09-30T10:31:07.151Z,4.93
2017-09-30T10:33:34.680Z,4.27
2017-09-30T10:36:02.939Z,4.80
2017-09-30T10:38:31.188Z,4.60
2017-09-30T10:40:58.712Z,3.70
2017-09-30T10:43:26.196Z,3.20
2017-09-30T10:45:53.697Z,3.70
2017-09-30T10:48:21.949Z,3.87
2017-09-30T10:50:50.212Z,4.33
2017-09-30T10:53:17.696Z,4.63
2017-09-30T10:55:45.932Z,5.33
2017-09-30T10:58:13.415Z,6.97
2017-09-30T11:00:40.892Z,6.20
2017-09-30T11:03:09.871Z,7.07
2017-09-30T11:05:37.364Z,8.60
2017-09-30T11:08:05.603Z,7.97
2017-09-30T11:10:33.100Z,8.90
2017-09-30T11:13:01.343Z,8.50
2017-09-30T11:15:29.615Z,8.60
2017-09-30T11:17:57.120Z,8.57
2017-09-30T11:20:24.595Z,9.57
2017-09-30T11:22:52.088Z,9.43
2017-09-30T11:25:19.559Z,9.23
2017-09-30T11:27:49.036Z,9.90
2017-09-30T11:30:16.512Z,10.80
2017-09-30T11:32:44.010Z,11.20
2017-09-30T11:35:12.254Z,12.53
2017-09-30T11:37:40.505Z,14.37
2017-09-30T11:40:07.991Z,14.10
2017-09-30T11:42:35.465Z,15.33
2017-09-30T11:45:03.720Z,17.17
2017-09-30T11:47:31.197Z,15.83
2017-09-30T11:49:59.455Z,17.70
2017-09-30T11:52:27.699Z,19.47
2017-09-30T11:54:55.203Z,19.40
2017-09-30T11:57:23.451Z,15.47
2017-09-30T11:59:50.977Z,12.87
2017-09-30T12:02:18.472Z,12.43
2017-09-30T12:04:45.951Z,12.23
2017-09-30T12:07:14.212Z,10.50
2017-09-30T12:09:41.699Z,9.43
2017-09-30T12:49:10.037Z,7.57
2017-09-30T12:51:38.284Z,6.37
2017-09-30T12:54:05.794Z,6.40
2017-09-30T12:56:33.268Z,7.03
2017-09-30T12:59:00.755Z,7.97
2017-09-30T13:01:28.243Z,6.60
2017-09-30T13:03:56.503Z,7.43
2017-09-30T13:06:24.004Z,7.03
2017-09-30T13:08:51.472Z,4.90
2017-09-30T13:11:18.964Z,5.73
2017-09-30T13:13:46.444Z,6.07
2017-09-30T13:16:14.695Z,4.90
2017-09-30T13:18:42.180Z,5.07
2017-09-30T13:21:10.423Z,6.77
2017-09-30T13:23:37.949Z,12.23
2017-09-30T13:26:05.429Z,6.23
2017-09-30T13:28:32.919Z,7.03
2017-09-30T13:31:00.405Z,7.50
2017-09-30T13:33:28.642Z,7.77
2017-09-30T13:35:56.143Z,7.80
2017-09-30T13:38:23.637Z,7.30
2017-09-30T13:40:51.128Z,7.10
2017-09-30T13:43:18.604Z,5.33
2017-09-30T13:45:46.868Z,7.27
2017-09-30T13:48:14.347Z,5.50
2017-09-30T13:50:42.589Z,5.10
2017-09-30T13:53:10.842Z,6.30
2017-09-30T13:55:38.727Z,4.70
2017-09-30T13:58:06.219Z,5.13
2017-09-30T14:00:34.467Z,5.53
2017-09-30T14:03:01.965Z,10.97
2017-09-30T14:05:30.203Z,3.90
2017-09-30T14:07:57.679Z,4.25
2017-09-30T14:10:25.941Z,4.50
2017-09-30T14:12:53.423Z,4.70
2017-09-30T14:15:21.691Z,4.77
2017-09-30T14:17:49.983Z,4.87
2017-09-30T14:20:17.496Z,4.50
2017-09-30T14:22:44.979Z,5.43
2017-09-30T14:25:12.447Z,3.77
2017-09-30T14:27:41.080Z,3.53
2017-09-30T14:30:08.563Z,4.70
2017-09-30T14:32:36.050Z,4.63
2017-09-30T14:35:04.279Z,3.80
2017-09-30T14:37:31.795Z,5.10
2017-09-30T14:40:00.032Z,5.47
2017-09-30T14:42:27.544Z,4.73
2017-09-30T14:44:55.044Z,3.53
2017-09-30T14:47:22.524Z,4.27
2017-09-30T14:49:50.031Z,3.53
2017-09-30T14:52:17.499Z,3.70
2017-09-30T14:54:44.996Z,3.43
2017-09-30T14:57:13.287Z,4.80
2017-09-30T14:59:41.531Z,4.37
2017-09-30T15:02:09.024Z,4.60
2017-09-30T15:04:37.275Z,4.83
2017-09-30T15:07:04.768Z,3.40
2017-09-30T15:09:33.003Z,3.73
2017-09-30T15:12:00.496Z,3.60
2017-09-30T15:14:28.741Z,4.20
2017-09-30T15:16:56.211Z,4.30
2017-09-30T15:19:24.463Z,4.17
2017-09-30T15:21:51.959Z,5.30
2017-09-30T15:24:20.250Z,4.20
2017-09-30T15:26:48.504Z,3.60
2017-09-30T15:29:16.748Z,4.20
2017-09-30T15:31:44.257Z,4.20
2017-09-30T15:34:12.497Z,3.70
2017-09-30T15:36:39.991Z,4.00
2017-09-30T15:39:08.234Z,3.63
2017-09-30T15:56:02.746Z,3.80
2017-09-30T15:58:30.986Z,3.73
2017-09-30T16:00:58.456Z,4.03
2017-09-30T16:03:25.980Z,3.67
2017-09-30T16:05:53.462Z,4.13
2017-09-30T16:08:20.989Z,3.67
2017-09-30T16:10:48.473Z,3.57
2017-09-30T16:13:15.966Z,3.90
2017-09-30T16:15:44.223Z,4.30
2017-09-30T16:18:11.699Z,3.70
2017-09-30T16:20:39.203Z,4.50
2017-09-30T16:23:06.670Z,4.10
2017-09-30T16:25:34.191Z,4.00
2017-09-30T16:28:02.429Z,3.33
2017-09-30T16:30:29.906Z,4.33
2017-09-30T16:32:57.395Z,3.60
2017-09-30T16:35:24.867Z,4.70
2017-09-30T16:37:52.360Z,4.00
2017-09-30T16:40:19.856Z,4.53
2017-09-30T16:42:48.118Z,4.00
2017-09-30T16:45:16.372Z,4.00
2017-09-30T16:47:43.862Z,4.03
2017-09-30T16:50:12.127Z,3.90
2017-09-30T16:52:40.380Z,4.27
2017-09-30T16:55:07.872Z,4.10
2017-09-30T16:57:36.183Z,3.80
2017-09-30T17:00:03.677Z,3.47
2017-09-30T17:02:31.156Z,3.60
2017-09-30T17:04:58.627Z,3.73
2017-09-30T17:07:26.875Z,4.00
2017-09-30T17:09:54.347Z,4.47
2017-09-30T17:12:21.831Z,3.80
2017-09-30T17:14:50.068Z,3.80
2017-09-30T17:17:17.568Z,4.37
2017-09-30T17:19:45.042Z,3.70
2017-09-30T17:22:13.299Z,3.70
2017-09-30T17:24:41.559Z,4.83
2017-09-30T17:27:09.807Z,4.30
2017-09-30T17:29:37.305Z,5.20
2017-09-30T17:32:05.541Z,4.03
2017-09-30T17:34:33.042Z,5.20
2017-09-30T17:37:01.332Z,4.00
2017-09-30T17:39:28.809Z,3.90
2017-09-30T17:41:56.291Z,4.50
2017-09-30T17:44:23.772Z,5.17
2017-09-30T17:46:51.258Z,4.47
2017-09-30T17:49:18.743Z,4.97
2017-09-30T17:51:46.247Z,4.37
2017-09-30T17:54:13.723Z,5.10
2017-09-30T17:56:41.961Z,5.23
2017-09-30T17:59:09.457Z,4.90
2017-09-30T18:01:38.531Z,5.82
2017-09-30T18:04:06.012Z,5.40
2017-09-30T18:06:34.250Z,4.70
2017-09-30T18:09:01.744Z,4.70
2017-09-30T18:11:29.987Z,4.37
2017-09-30T18:13:57.465Z,4.50
2017-09-30T18:16:25.755Z,4.03
2017-09-30T18:18:53.999Z,4.40
2017-09-30T18:21:21.593Z,4.43
2017-09-30T18:23:49.844Z,4.10
2017-09-30T18:26:18.859Z,3.60
2017-09-30T18:28:47.143Z,3.20
2017-09-30T18:31:15.400Z,3.00
2017-09-30T18:33:42.903Z,3.60
2017-09-30T18:36:10.375Z,3.40
2017-09-30T18:38:37.859Z,3.57
2017-09-30T18:41:05.335Z,4.30
2017-09-30T18:43:32.836Z,3.87
2017-09-30T18:46:00.319Z,4.20
2017-09-30T18:48:27.807Z,4.33
2017-09-30T18:50:56.095Z,6.00
2017-09-30T18:53:24.351Z,5.53
2017-09-30T18:55:51.840Z,5.70
2017-09-30T18:58:20.088Z,6.53
2017-09-30T19:00:47.685Z,9.13
2017-09-30T19:03:15.169Z,6.10
2017-09-30T19:05:42.642Z,6.17
2017-09-30T19:08:10.187Z,6.07
2017-09-30T19:10:37.672Z,6.50
2017-09-30T19:13:05.164Z,5.80
2017-09-30T19:15:33.492Z,5.43
2017-09-30T19:18:01.012Z,6.43
2017-09-30T19:20:29.308Z,6.60
2017-09-30T19:22:56.800Z,6.90
2017-09-30T19:25:24.287Z,8.50
2017-09-30T19:27:52.531Z,8.50
2017-09-30T19:30:20.036Z,9.00
2017-09-30T19:32:48.295Z,9.70
2017-09-30T19:35:15.899Z,10.37
2017-09-30T19:37:43.390Z,11.20
2017-09-30T19:40:10.895Z,11.43
2017-09-30T19:42:39.151Z,9.57
2017-09-30T19:45:07.408Z,11.93
2017-09-30T19:47:34.908Z,10.90
2017-09-30T19:50:02.400Z,12.73
2017-09-30T19:52:29.928Z,12.90
2017-09-30T19:54:57.404Z,11.50
2017-09-30T19:57:24.931Z,12.73
2017-09-30T19:59:53.182Z,12.40
2017-09-30T20:02:20.664Z,11.50
2017-09-30T20:04:48.923Z,10.67
2017-09-30T20:07:16.403Z,13.93
2017-09-30T20:09:44.671Z,17.80
2017-09-30T20:12:12.924Z,12.43
2017-09-30T20:14:40.409Z,15.13
2017-09-30T20:17:08.680Z,10.63
2017-09-30T20:19:36.951Z,7.47
2017-09-30T20:22:04.432Z,6.50
2017-09-30T20:24:32.706Z,7.43
2017-09-30T20:27:00.991Z,7.20
2017-09-30T20:29:28.464Z,7.67
2017-09-30T20:31:55.938Z,6.70
2017-09-30T20:34:23.438Z,10.50
2017-09-30T20:36:50.916Z,10.77
2017-09-30T20:39:19.175Z,8.77
2017-09-30T20:41:46.644Z,7.77
2017-09-30T20:44:14.903Z,7.80
2017-09-30T20:46:42.420Z,8.20
2017-09-30T20:49:09.899Z,12.77
2017-09-30T20:51:37.433Z,8.70
2017-09-30T20:54:04.915Z,9.20
2017-09-30T20:56:32.407Z,8.10
2017-09-30T20:59:00.675Z,9.30
2017-09-30T21:01:28.186Z,9.63
2017-09-30T21:03:55.673Z,10.60
2017-09-30T21:06:23.196Z,10.10
2017-09-30T21:08:50.691Z,11.03
2017-09-30T21:11:18.186Z,10.83
2017-09-30T21:13:46.476Z,11.33
2017-09-30T21:16:13.955Z,12.77
2017-09-30T21:18:41.459Z,12.90
2017-09-30T21:21:08.931Z,13.13
2017-09-30T21:23:37.184Z,13.30
2017-09-30T21:26:05.507Z,15.10
2017-09-30T21:28:32.983Z,19.93
2017-09-30T21:31:00.536Z,24.77
2017-09-30T21:33:28.023Z,17.37
2017-09-30T21:35:55.527Z,17.60
2017-09-30T21:38:23.797Z,16.87
2017-09-30T21:40:52.043Z,18.43
2017-09-30T21:43:20.500Z,23.40
2017-09-30T21:45:47.983Z,18.83
2017-09-30T21:48:15.495Z,15.67
2017-09-30T21:50:43.028Z,16.70
2017-09-30T21:53:12.076Z,14.80
2017-09-30T21:55:39.556Z,14.90
2017-09-30T21:58:07.039Z,16.10
2017-09-30T22:00:35.303Z,15.37
2017-09-30T22:03:03.580Z,14.77
2017-09-30T22:05:31.846Z,14.43
2017-09-30T22:07:59.331Z,14.13
2017-09-30T22:10:27.589Z,15.10
2017-09-30T22:12:55.068Z,16.53
2017-09-30T22:15:23.331Z,16.10
2017-09-30T22:17:50.828Z,15.80
2017-09-30T22:20:18.320Z,15.00
2017-09-30T22:22:45.824Z,20.93
2017-09-30T22:25:14.072Z,13.63
2017-09-30T22:27:41.547Z,14.30
2017-09-30T22:30:09.819Z,14.83
2017-09-30T22:32:37.299Z,15.40
2017-09-30T22:35:05.559Z,14.77
2017-09-30T22:37:33.835Z,16.63
2017-09-30T22:40:01.400Z,15.50
2017-09-30T22:42:29.655Z,16.90
2017-09-30T22:44:57.140Z,16.40
2017-09-30T22:47:25.399Z,16.70
2017-09-30T22:49:52.880Z,16.67
2017-09-30T22:52:21.130Z,18.03
2017-09-30T22:54:48.621Z,17.93
2017-09-30T22:57:16.104Z,19.33
2017-09-30T22:59:43.595Z,17.47
2017-09-30T23:02:11.077Z,17.27
2017-09-30T23:04:39.342Z,18.85
2017-09-30T23:07:06.819Z,17.83
2017-09-30T23:09:35.083Z,18.60
2017-09-30T23:12:02.574Z,18.83
2017-09-30T23:14:30.057Z,18.03
2017-09-30T23:16:57.552Z,18.77
2017-09-30T23:19:25.023Z,18.90
2017-09-30T23:21:53.278Z,18.97
2017-09-30T23:24:21.531Z,18.73
2017-09-30T23:26:49.011Z,15.90
2017-09-30T23:29:16.520Z,16.47
2017-09-30T23:31:43.995Z,14.83
2017-09-30T23:34:11.492Z,16.10
2017-09-30T23:36:38.972Z,16.20
2017-09-30T23:39:07.211Z,16.80
2017-09-30T23:41:34.699Z,14.17
2017-09-30T23:44:02.944Z,13.43
2017-09-30T23:46:30.511Z,14.60
2017-09-30T23:48:57.989Z,14.20
2017-09-30T23:51:26.261Z,13.50
2017-09-30T23:53:53.731Z,13.90
2017-09-30T23:56:21.975Z,14.60
2017-09-30T23:58:49.467Z,13.40
